Amritsar Air Force Station
VIAR : now visible

Airfield :











YOU CAN JOIN US ON...

 
LOGIN :

Register | Disclaimer

   EN    FR    IT 

 









Legend :    VFR   Marginal VFR   IFR   Intensive IFR   Very Intensive IFR
Visi :
Ceiling :
>= 8 km
>= 3000ft
5 to 8 km
1000 to 3000 ft
1500m to 5 km
500 to 1000 ft
800 to 1500m
200 to 500 ft
< 800m
< 200 ft
Symbols :   Thunderstorms  Fog  Heavy snow  Heavy precipitations  Wind > 20 kt






- Airport Elevation : 756 ft
- IATA code : ATQ


VIAR - Amritsar Air Force Station

CURRENT METAR :
  • 011800Z 00000KT 3000 BR SCT100 19/14 Q1013 NOSIG

EXPIRED METARs :
  • 011730Z 00000KT 3000 BR SCT100 19/15 Q1013 NOSIG
  • 011700Z 00000KT 3000 BR SCT100 20/15 Q1013 NOSIG
  • 011630Z 00000KT 3500 HZ SCT100 20/15 Q1013 NOSIG
  • 011600Z 00000KT 3500 HZ SCT100 20/14 Q1013 NOSIG
  • 011530Z 00000KT 4000 HZ SCT100 21/15 Q1013 NOSIG

TAF TAF VIAR
Valid from the 01 at 18:00 until the 03 at 00:00 UTC


011700Z 0118/0224 32005KT 3500 BR SCT035 BKN100
BECMG 0122/0202 34010G25KT 2000 TSRA SCT030 FEW035CB BKN090
BECMG 0204/0206 32008KT 6000 SCT100
BECMG 0215/0217 30008KT 3500 BR FEW100
BECMG 0221/0223 VRB02KT 2500 BR



MET'MAP, your aeronautical weather chart ! - Copyright ORBIFLY December 2007 - Disclaimer

ORBIFLY MET'MAP TEAM :

Programming & Development : Alexandra Zaïnal
Concept & original design : Baudouin d'Aumeries
Assistance for programming : Marc-Olivier Méhu
Technical & hardware support : Manuel Goepfert

Contact : metmap@orbifly.com




SOURCES & CREDITS :

   NOAA       Earth
Advisory